Time;durP1;ratioP1;P1;durP2;ratioP2;P2;SDS_P1;SDS_P2;PMS_P1;PMS_P2;Temp;Humidity;BMP_temperature;BMP_pressure;BME280_temperature;BME280_humidity;BME280_pressure;Samples;Min_cycle;Max_cycle;Signal;HPM_P1;HPM_P2
2023/12/14 00:00:08;;;;;;;25.00;10.10;;;;;;;6.07;100.00;100725.53;5089150;28;20085;-57
2023/12/14 00:02:33;;;;;;;25.10;10.68;;;;;;;5.96;100.00;100743.09;5077148;28;20031;-57
2023/12/14 00:04:58;;;;;;;23.80;9.45;;;;;;;5.92;100.00;100740.88;5077281;28;20024;-57
2023/12/14 00:07:23;;;;;;;24.95;10.63;;;;;;;5.92;100.00;100753.81;5070080;28;20425;-57
2023/12/14 00:09:49;;;;;;;24.73;10.27;;;;;;;5.86;100.00;100761.22;5072686;28;20033;-57
2023/12/14 00:12:14;;;;;;;25.25;9.93;;;;;;;5.86;100.00;100774.94;5073377;28;20495;-57
2023/12/14 00:14:39;;;;;;;25.25;10.30;;;;;;;5.85;100.00;100784.28;5078902;28;20051;-56
2023/12/14 00:17:04;;;;;;;26.80;11.48;;;;;;;5.74;100.00;100779.88;5087240;28;20141;-59
2023/12/14 00:19:30;;;;;;;26.10;10.40;;;;;;;5.74;100.00;100785.38;5079260;28;20036;-57
2023/12/14 00:21:55;;;;;;;24.50;10.48;;;;;;;5.73;100.00;100794.72;5084349;28;20399;-57
2023/12/14 00:24:20;;;;;;;25.40;9.63;;;;;;;5.65;100.00;100798.00;5082350;28;20052;-57
2023/12/14 00:26:46;;;;;;;26.10;10.23;;;;;;;5.65;100.00;100806.25;5079764;28;20556;-57
2023/12/14 00:29:11;;;;;;;25.92;11.00;;;;;;;5.59;100.00;100814.47;5075098;28;20106;-58
2023/12/14 00:31:36;;;;;;;25.88;11.50;;;;;;;5.53;100.00;100814.75;5089668;28;20422;-57
2023/12/14 00:34:02;;;;;;;27.33;11.35;;;;;;;5.52;100.00;100819.41;5078256;28;20024;-57
2023/12/14 00:36:28;;;;;;;25.92;10.73;;;;;;;5.57;100.00;100816.66;5082743;28;20020;-57
2023/12/14 00:38:55;;;;;;;26.52;10.73;;;;;;;5.55;100.00;100826.28;5083351;28;20565;-57
2023/12/14 00:41:20;;;;;;;25.85;10.25;;;;;;;5.56;100.00;100844.41;5086099;28;20024;-57
2023/12/14 00:43:46;;;;;;;27.65;11.82;;;;;;;5.51;100.00;100858.09;5084394;28;20511;-58
2023/12/14 00:46:11;;;;;;;27.58;11.50;;;;;;;5.52;100.00;100854.25;5070018;28;20036;-57
2023/12/14 00:48:36;;;;;;;26.23;10.70;;;;;;;5.50;100.00;100857.28;5068822;28;20090;-57
2023/12/14 00:51:02;;;;;;;27.27;11.55;;;;;;;5.52;100.00;100868.81;5068497;28;20036;-58
2023/12/14 00:53:27;;;;;;;31.00;12.77;;;;;;;5.41;100.00;100862.47;5084300;28;20044;-58
2023/12/14 00:55:52;;;;;;;30.45;13.35;;;;;;;5.41;100.00;100865.22;5073957;28;20135;-59
2023/12/14 00:58:18;;;;;;;29.13;12.85;;;;;;;5.41;100.00;100876.19;5070121;28;20062;-58
2023/12/14 01:00:43;;;;;;;32.17;13.90;;;;;;;5.42;100.00;100872.34;5069855;28;20404;-58
2023/12/14 01:03:08;;;;;;;28.35;12.10;;;;;;;5.43;100.00;100881.41;5078785;28;20438;-58
2023/12/14 01:05:33;;;;;;;29.98;12.57;;;;;;;5.30;100.00;100872.59;5089976;28;20028;-58
2023/12/14 01:07:59;;;;;;;33.40;15.70;;;;;;;5.26;100.00;100878.91;5079355;28;20033;-58
2023/12/14 01:10:24;;;;;;;38.90;18.88;;;;;;;5.24;100.00;100887.38;5081612;28;20032;-58
2023/12/14 01:12:50;;;;;;;30.45;13.02;;;;;;;5.26;100.00;100895.34;5084928;28;20032;-57
2023/12/14 01:15:15;;;;;;;30.45;13.98;;;;;;;5.23;100.00;100884.91;5075642;28;20036;-57
2023/12/14 01:17:40;;;;;;;32.95;14.25;;;;;;;5.10;100.00;100881.56;5088296;28;20111;-57
2023/12/14 01:20:09;;;;;;;29.55;13.63;;;;;;;5.09;100.00;100895.56;5073279;28;20333;-57
2023/12/14 01:22:34;;;;;;;30.38;11.82;;;;;;;5.08;100.00;100891.16;5082236;28;20028;-57
2023/12/14 01:24:59;;;;;;;29.25;12.80;;;;;;;5.04;100.00;100901.03;5079425;28;20545;-58
2023/12/14 01:27:25;;;;;;;29.65;13.10;;;;;;;5.05;100.00;100910.91;5086297;28;20039;-57
2023/12/14 01:29:50;;;;;;;29.23;11.68;;;;;;;5.04;100.00;100914.75;5081738;28;20383;-57
2023/12/14 01:32:16;;;;;;;27.05;10.95;;;;;;;5.02;100.00;100912.25;5092881;28;20032;-57
2023/12/14 01:34:41;;;;;;;28.98;11.93;;;;;;;5.04;100.00;100926.53;5083681;28;20032;-57
2023/12/14 01:37:06;;;;;;;28.23;11.57;;;;;;;5.03;100.00;100938.56;5090675;28;20031;-57
2023/12/14 01:39:32;;;;;;;27.67;10.63;;;;;;;5.07;100.00;100936.97;5073410;28;20560;-57
2023/12/14 01:41:58;;;;;;;28.15;10.73;;;;;;;5.10;100.00;100939.16;5075776;28;20071;-57
2023/12/14 01:44:23;;;;;;;27.48;11.25;;;;;;;5.05;100.00;100941.88;5084785;28;20490;-57
2023/12/14 01:46:48;;;;;;;28.75;11.77;;;;;;;4.98;100.00;100949.53;5072867;28;20043;-57
2023/12/14 01:49:13;;;;;;;28.23;12.38;;;;;;;4.91;100.00;100952.50;5082637;28;20028;-57
2023/12/14 01:51:39;;;;;;;28.20;11.68;;;;;;;4.89;100.00;100954.69;5087002;28;20490;-57
2023/12/14 01:54:04;;;;;;;29.77;12.35;;;;;;;4.86;100.00;100966.19;5079753;28;20133;-57
2023/12/14 01:56:29;;;;;;;28.92;11.88;;;;;;;4.85;100.00;100967.28;5092303;28;20028;-57
2023/12/14 01:58:55;;;;;;;28.42;12.07;;;;;;;4.84;100.00;100982.88;5072629;28;20046;-57
2023/12/14 02:01:41;;;;;;;31.25;13.05;;;;;;;4.81;100.00;100986.19;5072885;28;20020;-57
2023/12/14 02:04:07;;;;;;;30.77;13.02;;;;;;;4.76;100.00;100988.88;5072603;28;20028;-56
2023/12/14 02:06:32;;;;;;;31.15;13.32;;;;;;;4.72;100.00;100997.88;5086380;28;20379;-57
2023/12/14 02:08:58;;;;;;;29.52;13.15;;;;;;;4.73;100.00;100986.63;5083500;28;20032;-57
2023/12/14 02:11:23;;;;;;;31.52;13.93;;;;;;;4.73;100.00;100994.88;5072769;28;20025;-57
2023/12/14 02:13:48;;;;;;;31.58;13.13;;;;;;;4.74;100.00;100996.53;5083923;28;20435;-57
2023/12/14 02:16:14;;;;;;;30.52;12.70;;;;;;;4.73;100.00;101003.09;5092695;28;20031;-57
2023/12/14 02:18:40;;;;;;;30.77;12.60;;;;;;;4.74;100.00;101003.94;5079006;28;20020;-58
2023/12/14 02:21:05;;;;;;;30.85;12.30;;;;;;;4.72;100.00;101006.94;5071343;28;20029;-57
2023/12/14 02:23:30;;;;;;;32.05;13.95;;;;;;;4.75;100.00;101016.53;5083376;28;20555;-58
2023/12/14 02:25:56;;;;;;;30.38;13.23;;;;;;;4.68;100.00;101022.25;5092256;28;20442;-58
2023/12/14 02:28:21;;;;;;;31.27;13.00;;;;;;;4.72;100.00;101034.34;5081626;28;20575;-58
2023/12/14 02:30:46;;;;;;;31.35;13.30;;;;;;;4.69;100.00;101040.34;5081165;28;20032;-58
2023/12/14 02:33:12;;;;;;;30.45;12.93;;;;;;;4.62;100.00;101040.56;5071700;28;20029;-57
2023/12/14 02:35:37;;;;;;;32.40;12.82;;;;;;;4.56;100.00;101044.34;5089222;28;20062;-58
2023/12/14 02:38:02;;;;;;;32.50;14.75;;;;;;;4.48;100.00;101048.38;5087770;28;20541;-58
2023/12/14 02:40:27;;;;;;;32.28;14.27;;;;;;;4.43;100.00;101051.09;5071374;28;20030;-57
2023/12/14 02:42:53;;;;;;;32.80;13.57;;;;;;;4.43;100.00;101052.97;5069795;28;20049;-57
2023/12/14 02:45:18;;;;;;;31.63;13.02;;;;;;;4.38;100.00;101061.97;5079358;28;20642;-57
2023/12/14 02:47:43;;;;;;;31.50;13.75;;;;;;;4.42;100.00;101065.88;5080819;28;20028;-57
2023/12/14 02:50:09;;;;;;;33.22;13.65;;;;;;;4.40;100.00;101062.56;5091710;28;20085;-57
2023/12/14 02:52:34;;;;;;;30.60;12.85;;;;;;;4.41;100.00;101066.09;5077535;28;20028;-57
2023/12/14 02:55:00;;;;;;;32.83;14.23;;;;;;;4.43;100.00;101073.00;5090114;28;20038;-57
2023/12/14 02:57:25;;;;;;;31.75;14.70;;;;;;;4.39;100.00;101079.25;5084012;28;20043;-57
2023/12/14 02:59:51;;;;;;;29.63;13.38;;;;;;;4.34;100.00;101082.78;5073023;28;20024;-57
2023/12/14 03:02:16;;;;;;;30.08;11.98;;;;;;;4.33;100.00;101087.41;5072632;28;20529;-57
2023/12/14 03:04:41;;;;;;;31.17;13.18;;;;;;;4.35;100.00;101081.66;5070864;28;20028;-57
2023/12/14 03:07:07;;;;;;;28.88;12.55;;;;;;;4.34;100.00;101091.81;5072203;28;20032;-57
2023/12/14 03:09:33;;;;;;;27.88;12.00;;;;;;;4.39;100.00;101099.25;5071729;28;20024;-57
2023/12/14 03:11:59;;;;;;;30.40;14.38;;;;;;;4.38;100.00;101103.06;5078341;28;20515;-57
2023/12/14 03:14:24;;;;;;;27.17;11.57;;;;;;;4.38;100.00;101108.56;5082042;28;20484;-57
2023/12/14 03:16:50;;;;;;;27.38;10.73;;;;;;;4.41;100.00;101108.03;5089597;28;20134;-57
2023/12/14 03:19:15;;;;;;;30.63;15.07;;;;;;;4.33;100.00;101111.25;5090089;28;20051;-57
2023/12/14 03:21:42;;;;;;;28.67;11.88;;;;;;;4.34;100.00;101118.38;5074841;28;20036;-57
2023/12/14 03:24:07;;;;;;;28.10;12.30;;;;;;;4.32;100.00;101115.06;5080817;28;20024;-57
2023/12/14 03:26:33;;;;;;;27.08;10.95;;;;;;;4.37;100.00;101112.38;5077690;28;20082;-57
2023/12/14 03:28:58;;;;;;;28.25;13.68;;;;;;;4.39;100.00;101121.16;5080857;28;20036;-57
2023/12/14 03:31:23;;;;;;;25.08;10.10;;;;;;;4.43;100.00;101121.47;5070434;28;20025;-57
2023/12/14 03:33:49;;;;;;;27.33;11.48;;;;;;;4.41;100.00;101123.63;5077107;28;20027;-57
2023/12/14 03:36:14;;;;;;;27.58;10.70;;;;;;;4.46;100.00;101123.72;5075891;28;20391;-57
2023/12/14 03:38:39;;;;;;;26.83;10.95;;;;;;;4.46;100.00;101120.97;5083591;28;20024;-57
2023/12/14 03:41:05;;;;;;;27.60;11.77;;;;;;;4.47;100.00;101117.16;5086507;28;20528;-57
2023/12/14 03:43:30;;;;;;;26.67;11.85;;;;;;;4.44;100.00;101126.69;5073693;28;20058;-57
2023/12/14 03:45:55;;;;;;;28.80;12.32;;;;;;;4.45;100.00;101130.28;5072377;28;20119;-57
2023/12/14 03:48:20;;;;;;;28.77;11.68;;;;;;;4.46;100.00;101135.47;5086704;28;20027;-57
2023/12/14 03:50:46;;;;;;;27.55;12.02;;;;;;;4.40;100.00;101133.78;5087263;28;20056;-57
2023/12/14 03:53:11;;;;;;;29.45;12.02;;;;;;;4.35;100.00;101139.19;5070431;28;20039;-58
2023/12/14 03:55:36;;;;;;;27.25;10.88;;;;;;;4.33;100.00;101155.06;5076518;28;20475;-57
2023/12/14 03:58:02;;;;;;;28.85;13.40;;;;;;;4.32;100.00;101154.22;5090853;28;20093;-57
2023/12/14 04:00:27;;;;;;;28.00;12.23;;;;;;;4.32;100.00;101156.97;5074938;28;20109;-58
2023/12/14 04:02:52;;;;;;;27.65;12.85;;;;;;;4.24;100.00;101159.34;5084706;28;20115;-57
2023/12/14 04:05:18;;;;;;;27.55;11.82;;;;;;;4.24;100.00;101167.56;5089504;28;20039;-57
2023/12/14 04:07:43;;;;;;;26.38;11.27;;;;;;;4.24;100.00;101157.44;5080760;28;20553;-57
2023/12/14 04:10:12;;;;;;;26.65;11.02;;;;;;;4.17;100.00;101157.63;5078018;28;20457;-56
2023/12/14 04:12:39;;;;;;;26.48;11.32;;;;;;;4.19;100.00;101160.13;5090567;28;20036;-57
2023/12/14 04:15:06;;;;;;;25.92;10.95;;;;;;;4.22;100.00;101162.31;5083318;28;20059;-57
2023/12/14 04:17:31;;;;;;;26.42;11.23;;;;;;;4.29;100.00;101157.50;5089603;28;20028;-57
2023/12/14 04:19:57;;;;;;;25.08;10.50;;;;;;;4.35;100.00;101159.22;5070027;28;20036;-58
2023/12/14 04:22:23;;;;;;;24.55;10.18;;;;;;;4.30;100.00;101156.38;5070285;28;20032;-57
2023/12/14 04:24:48;;;;;;;24.42;9.85;;;;;;;4.31;100.00;101160.78;5076110;28;20035;-57
2023/12/14 04:27:14;;;;;;;25.33;9.75;;;;;;;4.34;100.00;101175.91;5070171;28;20082;-57
2023/12/14 04:29:40;;;;;;;26.38;10.63;;;;;;;4.35;100.00;101177.53;5079074;28;20059;-58
2023/12/14 04:32:05;;;;;;;25.23;10.05;;;;;;;4.28;100.00;101182.38;5090424;28;20105;-58
2023/12/14 04:34:31;;;;;;;25.70;10.70;;;;;;;4.30;100.00;101191.19;5084725;28;20033;-59
2023/12/14 04:36:57;;;;;;;25.25;9.98;;;;;;;4.32;100.00;101197.25;5077592;28;20028;-59
2023/12/14 04:39:26;;;;;;;25.90;10.52;;;;;;;4.33;100.00;101204.38;5072750;28;20117;-58
2023/12/14 04:41:52;;;;;;;24.40;9.88;;;;;;;4.38;100.00;101218.13;5090097;28;20024;-58
2023/12/14 04:44:18;;;;;;;25.15;9.77;;;;;;;4.29;100.00;101219.66;5080136;28;20035;-58
2023/12/14 04:46:43;;;;;;;24.30;9.98;;;;;;;4.32;100.00;101235.59;5077093;28;20044;-58
2023/12/14 04:49:09;;;;;;;24.02;9.68;;;;;;;4.30;100.00;101235.00;5093549;28;20071;-58
2023/12/14 04:51:34;;;;;;;23.92;10.18;;;;;;;4.30;100.00;101237.75;5092488;28;20032;-57
2023/12/14 04:53:59;;;;;;;25.45;9.80;;;;;;;4.31;100.00;101242.97;5091499;28;20425;-57
2023/12/14 04:56:24;;;;;;;24.75;10.18;;;;;;;4.34;100.00;101239.72;5078663;28;20123;-57
2023/12/14 04:58:50;;;;;;;25.33;10.02;;;;;;;4.32;100.00;101249.28;5074631;28;20415;-57
2023/12/14 05:01:15;;;;;;;25.23;10.10;;;;;;;4.32;100.00;101252.03;5092163;28;20468;-58
2023/12/14 05:03:40;;;;;;;25.55;11.45;;;;;;;4.30;100.00;101248.69;5085343;28;20111;-58
2023/12/14 05:06:07;;;;;;;25.95;11.32;;;;;;;4.27;100.00;101262.91;5091836;28;20471;-57
2023/12/14 05:08:32;;;;;;;25.98;10.95;;;;;;;4.26;100.00;101269.44;5094243;28;20055;-56
2023/12/14 05:10:57;;;;;;;25.38;10.85;;;;;;;4.27;100.00;101273.84;5083280;28;20055;-57
2023/12/14 05:13:22;;;;;;;24.30;10.20;;;;;;;4.29;100.00;101280.75;5093999;28;20058;-57
2023/12/14 05:15:48;;;;;;;25.70;10.75;;;;;;;4.28;100.00;101279.09;5083491;28;20079;-56
2023/12/14 05:18:13;;;;;;;24.77;10.13;;;;;;;4.28;100.00;101287.31;5093843;28;20059;-57
2023/12/14 05:20:38;;;;;;;26.25;11.27;;;;;;;4.31;100.00;101291.44;5086933;28;20113;-57
2023/12/14 05:23:03;;;;;;;27.58;10.73;;;;;;;4.28;100.00;101295.53;5093919;28;20035;-58
2023/12/14 05:25:29;;;;;;;26.02;11.18;;;;;;;4.24;100.00;101297.09;5075527;28;20028;-57
2023/12/14 05:27:54;;;;;;;26.90;11.32;;;;;;;4.30;100.00;101303.47;5082643;28;20078;-57
2023/12/14 05:30:19;;;;;;;25.75;10.60;;;;;;;4.32;100.00;101315.84;5073050;28;20490;-57
2023/12/14 05:32:45;;;;;;;26.10;10.93;;;;;;;4.31;100.00;101318.84;5080291;28;20028;-57
2023/12/14 05:35:11;;;;;;;27.10;12.65;;;;;;;4.27;100.00;101320.41;5090595;28;20462;-56
2023/12/14 05:37:38;;;;;;;27.23;12.20;;;;;;;4.22;100.00;101319.28;5077074;28;20028;-57
2023/12/14 05:40:04;;;;;;;31.13;14.63;;;;;;;4.31;100.00;101329.78;5081990;28;20051;-57
2023/12/14 05:42:29;;;;;;;28.00;12.13;;;;;;;4.34;100.00;101329.31;5075738;28;20079;-57
2023/12/14 05:44:54;;;;;;;25.85;11.07;;;;;;;4.34;100.00;101340.25;5078734;28;20025;-57
2023/12/14 05:47:21;;;;;;;27.95;12.32;;;;;;;4.40;100.00;101338.41;5073768;28;20482;-57
2023/12/14 05:49:46;;;;;;;27.10;11.90;;;;;;;4.40;100.00;101352.09;5072622;28;20468;-57
2023/12/14 05:52:12;;;;;;;27.33;11.77;;;;;;;4.41;100.00;101360.09;5079653;28;20059;-56
2023/12/14 05:54:38;;;;;;;27.80;11.63;;;;;;;4.38;100.00;101374.28;5091899;28;20024;-56
2023/12/14 05:57:04;;;;;;;26.92;11.20;;;;;;;4.40;100.00;101380.34;5089648;28;20028;-56
2023/12/14 05:59:29;;;;;;;26.52;12.15;;;;;;;4.40;100.00;101387.69;5071883;28;20142;-58
2023/12/14 06:02:01;;;;;;;27.27;11.93;;;;;;;4.41;100.00;101387.47;5080360;28;20371;-57
2023/12/14 06:04:27;;;;;;;26.63;11.57;;;;;;;4.39;100.00;101392.38;5090977;28;20032;-57
2023/12/14 06:06:53;;;;;;;26.90;11.70;;;;;;;4.35;100.00;101399.41;5067783;28;20043;-57
2023/12/14 06:09:21;;;;;;;25.95;10.90;;;;;;;4.36;100.00;101399.19;5091695;28;20107;-56
2023/12/14 06:11:47;;;;;;;27.63;11.57;;;;;;;4.32;100.00;101400.75;5085752;28;20025;-56
2023/12/14 06:14:12;;;;;;;25.80;11.25;;;;;;;4.35;100.00;101404.91;5071648;28;20105;-57
2023/12/14 06:16:38;;;;;;;27.15;11.70;;;;;;;4.31;100.00;101404.56;5074772;28;20095;-57
2023/12/14 06:19:03;;;;;;;26.95;11.40;;;;;;;4.31;100.00;101406.50;5074960;28;20103;-57
2023/12/14 06:21:28;;;;;;;26.17;11.55;;;;;;;4.36;100.00;101401.06;5070692;28;20426;-57
2023/12/14 06:23:55;;;;;;;27.13;12.63;;;;;;;4.35;100.00;101411.22;5078200;28;20038;-57
2023/12/14 06:26:20;;;;;;;25.02;10.93;;;;;;;4.41;100.00;101412.13;5091335;28;20475;-57
2023/12/14 06:28:46;;;;;;;25.63;10.73;;;;;;;4.44;100.00;101413.53;5076065;28;20036;-56
2023/12/14 06:31:15;;;;;;;29.35;12.32;;;;;;;4.47;100.00;101419.34;5057964;28;20070;-57
2023/12/14 06:33:40;;;;;;;25.80;10.75;;;;;;;4.46;100.00;101422.34;5070533;28;20205;-57
2023/12/14 06:36:08;;;;;;;25.80;11.50;;;;;;;4.49;100.00;101430.88;5074223;28;20082;-56
2023/12/14 06:38:33;;;;;;;24.98;10.35;;;;;;;4.49;100.00;101435.50;5070385;28;20674;-56
2023/12/14 06:40:58;;;;;;;27.45;11.63;;;;;;;4.39;100.00;101446.34;5076853;28;20123;-57
2023/12/14 06:43:23;;;;;;;26.50;11.27;;;;;;;4.35;100.00;101452.31;5083063;28;20060;-57
2023/12/14 06:45:49;;;;;;;25.70;11.05;;;;;;;4.41;100.00;101445.00;5090806;28;20495;-57
2023/12/14 06:48:14;;;;;;;26.00;10.95;;;;;;;4.46;100.00;101447.00;5077749;28;20024;-57
2023/12/14 06:50:39;;;;;;;27.00;12.05;;;;;;;4.42;100.00;101454.03;5088575;28;20036;-57
2023/12/14 06:53:05;;;;;;;27.25;10.85;;;;;;;4.41;100.00;101455.13;5081108;28;20036;-57
2023/12/14 06:55:30;;;;;;;26.13;12.82;;;;;;;4.37;100.00;101450.16;5090844;28;20524;-57
2023/12/14 06:57:55;;;;;;;26.50;11.23;;;;;;;4.35;100.00;101460.53;5072449;28;20115;-58
2023/12/14 07:00:20;;;;;;;28.75;11.55;;;;;;;4.36;100.00;101467.66;5086151;28;20368;-57
2023/12/14 07:02:46;;;;;;;26.90;10.80;;;;;;;4.39;100.00;101471.81;5081478;28;20508;-57
2023/12/14 07:05:11;;;;;;;26.45;10.80;;;;;;;4.36;100.00;101473.16;5083924;28;20034;-57
2023/12/14 07:07:36;;;;;;;27.02;11.25;;;;;;;4.41;100.00;101472.41;5072603;28;20044;-55
2023/12/14 07:10:02;;;;;;;27.15;11.68;;;;;;;4.40;100.00;101483.59;5069542;28;20103;-57
2023/12/14 07:12:27;;;;;;;26.98;11.43;;;;;;;4.36;100.00;101484.09;5074251;28;20496;-57
2023/12/14 07:14:52;;;;;;;27.73;11.90;;;;;;;4.32;100.00;101482.94;5090358;28;20364;-57
2023/12/14 07:17:18;;;;;;;26.90;11.10;;;;;;;4.35;100.00;101493.41;5086645;28;20024;-57
2023/12/14 07:19:43;;;;;;;28.48;12.00;;;;;;;4.29;100.00;101499.03;5072666;28;20029;-59
2023/12/14 07:22:09;;;;;;;29.23;11.38;;;;;;;4.24;100.00;101505.25;5073912;28;20496;-57
2023/12/14 07:24:34;;;;;;;28.27;11.32;;;;;;;4.23;100.00;101503.59;5070365;28;20046;-58
2023/12/14 07:26:59;;;;;;;28.33;11.80;;;;;;;4.26;100.00;101522.28;5086995;28;20051;-55
2023/12/14 07:29:25;;;;;;;27.40;10.48;;;;;;;4.26;100.00;101525.03;5068820;28;20024;-59
2023/12/14 07:31:51;;;;;;;25.88;10.35;;;;;;;4.18;100.00;101531.72;5068187;28;20031;-58
2023/12/14 07:34:16;;;;;;;28.20;11.27;;;;;;;4.16;100.00;101536.59;5078925;28;20031;-57
2023/12/14 07:36:41;;;;;;;26.45;10.50;;;;;;;4.16;100.00;101547.56;5073390;28;20029;-56
2023/12/14 07:39:08;;;;;;;27.67;11.13;;;;;;;4.14;100.00;101548.88;5078339;28;20115;-57
2023/12/14 07:41:35;;;;;;;26.88;10.55;;;;;;;4.14;100.00;101554.38;5047845;28;20530;-58
2023/12/14 07:44:00;;;;;;;26.10;11.18;;;;;;;4.12;100.00;101551.88;5073591;28;20089;-56
2023/12/14 07:46:26;;;;;;;26.90;9.90;;;;;;;4.15;100.00;101553.28;5086502;28;20019;-57
2023/12/14 07:48:52;;;;;;;26.38;10.80;;;;;;;4.16;100.00;101555.78;5075095;28;20144;-56
2023/12/14 07:51:17;;;;;;;26.38;10.98;;;;;;;4.13;100.00;101561.75;5078066;28;20136;-56
2023/12/14 07:53:43;;;;;;;25.60;10.50;;;;;;;4.14;100.00;101568.06;5068310;28;20047;-56
2023/12/14 07:56:08;;;;;;;25.50;10.07;;;;;;;4.11;100.00;101574.88;5079785;28;20064;-56
2023/12/14 07:58:34;;;;;;;25.75;9.60;;;;;;;4.11;100.00;101572.13;5069078;28;20037;-57
2023/12/14 08:00:59;;;;;;;26.48;8.95;;;;;;;4.17;100.00;101573.88;5071224;28;20032;-56
2023/12/14 08:03:24;;;;;;;24.40;9.60;;;;;;;4.14;100.00;101579.88;5069273;28;20032;-57
2023/12/14 08:05:50;;;;;;;23.65;9.05;;;;;;;4.11;100.00;101585.81;5085109;28;20038;-57
2023/12/14 08:08:15;;;;;;;25.17;9.32;;;;;;;4.08;100.00;101593.69;5072355;28;20031;-56
2023/12/14 08:10:40;;;;;;;23.65;8.50;;;;;;;4.05;100.00;101600.50;5072324;28;20032;-58
2023/12/14 08:13:06;;;;;;;24.25;8.75;;;;;;;4.08;100.00;101600.00;5085408;28;20024;-57
2023/12/14 08:15:32;;;;;;;22.58;8.70;;;;;;;4.11;100.00;101590.47;5084495;28;20100;-56
2023/12/14 08:17:57;;;;;;;24.00;8.65;;;;;;;4.09;100.00;101606.31;5069513;28;20033;-57
2023/12/14 08:20:22;;;;;;;23.55;8.38;;;;;;;4.06;100.00;101607.63;5068828;28;20036;-57
2023/12/14 08:22:47;;;;;;;23.13;8.65;;;;;;;4.00;100.00;101609.44;5074314;28;20491;-57
2023/12/14 08:25:17;;;;;;;23.25;8.65;;;;;;;3.96;100.00;101615.66;5085499;28;20032;-57
2023/12/14 08:27:43;;;;;;;24.48;8.45;;;;;;;3.91;100.00;101619.09;5085979;28;20072;-56
2023/12/14 08:30:10;;;;;;;22.10;7.85;;;;;;;3.92;100.00;101622.66;5076865;28;20036;-57
2023/12/14 08:32:35;;;;;;;21.75;7.57;;;;;;;3.92;100.00;101625.41;5088061;28;20127;-57
2023/12/14 08:35:01;;;;;;;21.90;7.47;;;;;;;3.94;100.00;101635.03;5081193;28;20039;-55
2023/12/14 08:37:26;;;;;;;22.23;8.05;;;;;;;4.00;100.00;101641.44;5089311;28;20035;-56
2023/12/14 08:39:51;;;;;;;22.30;9.05;;;;;;;4.01;100.00;101643.13;5089350;28;20032;-56
2023/12/14 08:42:17;;;;;;;23.17;7.97;;;;;;;3.96;100.00;101651.22;5075479;28;20052;-56
2023/12/14 08:44:42;;;;;;;22.33;8.50;;;;;;;4.00;100.00;101661.47;5069104;28;20059;-56
2023/12/14 08:47:08;;;;;;;22.85;9.48;;;;;;;3.93;100.00;101657.19;5069206;28;20438;-56
2023/12/14 08:49:35;;;;;;;22.77;7.43;;;;;;;3.96;100.00;101663.00;5073365;28;20032;-56
2023/12/14 08:52:00;;;;;;;23.00;8.48;;;;;;;3.94;100.00;101670.63;5074300;28;20040;-56
2023/12/14 08:54:25;;;;;;;23.48;8.07;;;;;;;3.96;100.00;101675.88;5067696;28;20082;-56
2023/12/14 08:56:51;;;;;;;21.95;8.60;;;;;;;3.91;100.00;101684.81;5083058;28;20025;-56
2023/12/14 08:59:19;;;;;;;23.30;7.47;;;;;;;3.92;100.00;101683.72;5083500;28;20033;-56
2023/12/14 09:01:44;;;;;;;22.15;7.85;;;;;;;3.94;100.00;101684.31;5070982;28;20445;-56
2023/12/14 09:04:09;;;;;;;20.13;7.07;;;;;;;3.94;100.00;101681.56;5076007;28;20090;-56
2023/12/14 09:06:35;;;;;;;22.65;7.80;;;;;;;3.88;100.00;101672.41;5083815;28;20029;-57
2023/12/14 09:09:00;;;;;;;23.15;8.50;;;;;;;3.84;100.00;101676.72;5075459;28;20036;-57
2023/12/14 09:11:25;;;;;;;21.98;7.93;;;;;;;3.86;100.00;101684.69;5065147;28;20024;-57
2023/12/14 09:13:51;;;;;;;22.55;8.13;;;;;;;3.90;100.00;101688.63;5065529;28;20063;-56
2023/12/14 09:16:16;;;;;;;22.15;8.30;;;;;;;3.89;100.00;101701.47;5065696;28;20028;-57
2023/12/14 09:18:42;;;;;;;22.08;7.30;;;;;;;3.93;100.00;101710.03;5065748;28;20021;-57
2023/12/14 09:21:08;;;;;;;22.48;7.63;;;;;;;3.95;100.00;101712.53;5066159;28;20031;-56
2023/12/14 09:23:33;;;;;;;22.50;8.07;;;;;;;3.92;100.00;101730.25;5070651;28;20035;-56
2023/12/14 09:25:59;;;;;;;21.65;8.40;;;;;;;3.87;100.00;101730.97;5077127;28;20101;-57
2023/12/14 09:28:25;;;;;;;23.10;7.65;;;;;;;3.93;100.00;101733.84;5069449;28;20426;-57
2023/12/14 09:30:50;;;;;;;21.50;7.72;;;;;;;3.98;100.00;101740.28;5080557;28;20047;-57
2023/12/14 09:33:15;;;;;;;22.38;7.82;;;;;;;3.99;100.00;101747.41;5074026;28;20016;-56
2023/12/14 09:35:41;;;;;;;23.52;8.43;;;;;;;3.95;100.00;101750.88;5078338;28;20039;-57
2023/12/14 09:38:07;;;;;;;21.40;7.15;;;;;;;3.92;100.00;101740.38;5088573;28;20036;-57
2023/12/14 09:40:33;;;;;;;22.00;7.68;;;;;;;3.98;100.00;101748.47;5091907;28;20077;-57
2023/12/14 09:42:58;;;;;;;23.60;7.90;;;;;;;3.97;100.00;101755.03;5091739;28;20127;-56
2023/12/14 09:45:28;;;;;;;24.08;8.25;;;;;;;4.05;100.00;101764.78;5090756;28;20501;-56
2023/12/14 09:47:54;;;;;;;21.58;7.90;;;;;;;3.99;100.00;101766.56;5079063;28;20111;-57
2023/12/14 09:50:21;;;;;;;22.70;7.78;;;;;;;3.98;100.00;101775.88;5092007;28;20040;-57
2023/12/14 09:52:48;;;;;;;21.13;8.38;;;;;;;3.90;100.00;101773.50;5086769;28;20392;-57
2023/12/14 09:55:14;;;;;;;22.27;7.47;;;;;;;3.91;100.00;101777.91;5089245;28;20028;-57
2023/12/14 09:57:40;;;;;;;21.60;7.35;;;;;;;3.94;100.00;101780.13;5078846;28;20028;-56
2023/12/14 10:00:10;;;;;;;23.15;7.38;;;;;;;3.93;100.00;101791.34;5106976;28;20463;-57
2023/12/14 10:02:35;;;;;;;23.30;7.47;;;;;;;4.04;100.00;101796.81;5088466;28;20040;-57
2023/12/14 10:05:01;;;;;;;20.88;7.28;;;;;;;4.02;100.00;101803.59;5091406;28;20032;-57
2023/12/14 10:07:26;;;;;;;21.17;7.35;;;;;;;3.97;100.00;101811.69;5086758;28;20119;-57
2023/12/14 10:09:53;;;;;;;21.73;6.93;;;;;;;3.92;100.00;101811.56;5069617;28;20039;-57
2023/12/14 10:12:19;;;;;;;20.95;7.28;;;;;;;3.88;100.00;101819.41;5070490;28;20032;-58
2023/12/14 10:14:45;;;;;;;23.10;9.38;;;;;;;3.83;100.00;101820.13;5071074;28;20124;-57
2023/12/14 10:17:21;;;;;;;21.98;7.57;;;;;;;3.88;100.00;101822.97;5071176;28;20096;-57
2023/12/14 10:19:47;;;;;;;21.52;7.60;;;;;;;3.85;100.00;101823.47;5071282;28;20388;-57
2023/12/14 10:22:20;;;;;;;22.10;7.45;;;;;;;3.92;100.00;101825.25;5087155;28;20028;-56
2023/12/14 10:24:47;;;;;;;23.03;7.60;;;;;;;3.92;100.00;101828.81;5075335;28;20472;-57
2023/12/14 10:27:14;;;;;;;21.63;8.43;;;;;;;3.88;100.00;101833.94;5070978;28;20741;-57
2023/12/14 10:29:40;;;;;;;22.80;7.95;;;;;;;3.89;100.00;101849.28;5070610;28;20040;-58
2023/12/14 10:32:08;;;;;;;23.05;7.43;;;;;;;3.89;100.00;101846.56;5070796;28;20122;-58
2023/12/14 10:34:35;;;;;;;21.00;7.15;;;;;;;3.92;100.00;101847.16;5070642;28;20488;-58
2023/12/14 10:37:01;;;;;;;21.15;7.25;;;;;;;3.89;100.00;101849.28;5070574;28;20101;-58
2023/12/14 10:39:28;;;;;;;22.52;7.72;;;;;;;3.88;100.00;101841.31;5070448;28;20040;-58
2023/12/14 10:41:55;;;;;;;23.05;8.18;;;;;;;3.91;100.00;101838.13;5070222;28;20102;-58
2023/12/14 10:44:25;;;;;;;21.92;8.10;;;;;;;3.90;100.00;101833.72;5070166;28;20484;-57
2023/12/14 10:46:55;;;;;;;20.20;6.40;;;;;;;4.04;100.00;101840.63;5080144;28;20039;-58
2023/12/14 10:49:22;;;;;;;21.92;7.82;;;;;;;4.04;100.00;101843.34;5090972;28;20103;-58
2023/12/14 10:51:47;;;;;;;21.15;7.07;;;;;;;4.07;100.00;101842.03;5074019;28;20032;-58
2023/12/14 10:54:15;;;;;;;20.60;6.40;;;;;;;4.07;100.00;101836.56;5070227;28;20040;-55
2023/12/14 10:56:40;;;;;;;21.85;7.78;;;;;;;4.13;100.00;101849.31;5069787;28;20058;-56
2023/12/14 10:59:06;;;;;;;20.45;7.28;;;;;;;4.10;100.00;101855.25;5070042;28;20024;-57
2023/12/14 11:01:32;;;;;;;22.65;7.68;;;;;;;4.02;100.00;101839.19;5081528;28;20036;-57
2023/12/14 11:03:59;;;;;;;22.73;8.00;;;;;;;4.02;100.00;101841.94;5076502;28;20071;-57